Time,TemperatureF,DewpointF,PressureIn,WindDirection,WindDirectionDegrees,WindSpeedMPH,WindSpeedGustMPH,Humidity,HourlyPrecipIn,Conditions,Clouds,dailyrainin,SoftwareType,DateUTC
2013-05-07 00:02:00,44.6,42.4,29.94,West,270,0.0,2.0,92,0.00,,,0.00,meteohub,2013-05-07 04:02:00,
2013-05-07 00:04:00,44.6,42.4,29.93,West,270,1.0,2.0,92,0.00,,,0.00,meteohub,2013-05-07 04:04:00,
2013-05-07 00:08:00,44.8,42.6,29.93,West,270,1.0,2.0,92,0.00,,,0.00,meteohub,2013-05-07 04:08:00,
2013-05-07 00:14:00,44.8,42.8,29.93,West,270,2.0,2.0,93,0.00,,,0.00,meteohub,2013-05-07 04:14:00,
2013-05-07 00:20:00,44.6,42.6,29.94,West,270,3.0,3.0,93,0.00,,,0.00,meteohub,2013-05-07 04:20:00,
2013-05-07 00:22:00,44.6,42.6,29.93,West,270,4.0,4.0,93,0.00,,,0.00,meteohub,2013-05-07 04:22:00,
2013-05-07 00:27:00,44.2,42.6,29.93,NW,315,2.0,4.0,94,0.00,,,0.00,meteohub,2013-05-07 04:27:00,
2013-05-07 00:32:00,44.2,42.6,29.93,NW,315,2.0,4.0,94,0.00,,,0.00,meteohub,2013-05-07 04:32:00,
2013-05-07 00:37:00,44.2,42.6,29.93,NW,315,2.0,4.0,94,0.00,,,0.00,meteohub,2013-05-07 04:37:00,
2013-05-07 00:42:00,44.1,42.4,29.93,SE,135,2.0,3.0,94,0.00,,,0.00,meteohub,2013-05-07 04:42:00,
2013-05-07 00:47:00,43.9,42.6,29.93,NW,315,2.0,2.0,95,0.00,,,0.00,meteohub,2013-05-07 04:47:00,
2013-05-07 00:52:00,43.7,42.4,29.93,NW,315,2.0,2.0,95,0.00,,,0.00,meteohub,2013-05-07 04:52:00,
2013-05-07 00:57:00,43.7,42.4,29.93,NW,315,4.0,4.0,95,0.00,,,0.00,meteohub,2013-05-07 04:57:00,
2013-05-07 01:02:00,43.7,42.4,29.93,NW,315,2.0,4.0,95,0.00,,,0.00,meteohub,2013-05-07 05:02:00,
2013-05-07 01:07:00,43.5,42.3,29.93,NW,315,3.0,4.0,95,0.00,,,0.00,meteohub,2013-05-07 05:07:00,
2013-05-07 01:12:00,43.3,42.1,29.93,NW,315,2.0,4.0,95,0.00,,,0.00,meteohub,2013-05-07 05:12:00,
2013-05-07 01:17:00,43.3,42.3,29.92,NW,315,2.0,4.0,96,0.00,,,0.00,meteohub,2013-05-07 05:17:00,
2013-05-07 01:22:00,43.2,42.1,29.92,West,270,2.0,4.0,96,0.00,,,0.00,meteohub,2013-05-07 05:22:00,
2013-05-07 01:27:00,43.2,42.1,29.92,West,270,0.0,4.0,96,0.00,,,0.00,meteohub,2013-05-07 05:27:00,
2013-05-07 01:32:00,43.0,41.9,29.92,NW,315,1.0,4.0,96,0.00,,,0.00,meteohub,2013-05-07 05:32:00,
2013-05-07 01:37:00,43.0,42.3,29.92,West,270,2.0,3.0,97,0.00,,,0.00,meteohub,2013-05-07 05:37:00,
2013-05-07 01:42:00,43.0,42.3,29.92,NW,315,2.0,2.0,97,0.00,,,0.00,meteohub,2013-05-07 05:42:00,
2013-05-07 01:47:00,42.8,42.1,29.92,NW,315,1.0,3.0,97,0.00,,,0.00,meteohub,2013-05-07 05:47:00,
2013-05-07 01:52:00,43.0,42.3,29.92,NW,315,2.0,3.0,97,0.00,,,0.00,meteohub,2013-05-07 05:52:00,
2013-05-07 01:57:00,42.8,42.1,29.92,West,270,0.0,3.0,97,0.00,,,0.00,meteohub,2013-05-07 05:57:00,
2013-05-07 02:02:00,42.8,42.1,29.92,West,270,0.0,2.0,97,0.00,,,0.00,meteohub,2013-05-07 06:02:00,
2013-05-07 02:07:00,43.0,42.3,29.92,West,270,0.0,2.0,97,0.00,,,0.00,meteohub,2013-05-07 06:07:00,
2013-05-07 02:12:00,42.8,42.1,29.92,NW,315,0.0,2.0,97,0.00,,,0.00,meteohub,2013-05-07 06:12:00,
2013-05-07 02:17:00,42.8,42.1,29.92,NW,315,2.0,2.0,97,0.00,,,0.00,meteohub,2013-05-07 06:17:00,
2013-05-07 02:22:00,42.6,42.1,29.91,SW,225,1.0,2.0,98,0.00,,,0.00,meteohub,2013-05-07 06:22:00,
2013-05-07 02:27:00,42.8,42.1,29.91,NW,315,2.0,2.0,97,0.00,,,0.00,meteohub,2013-05-07 06:27:00,
2013-05-07 02:32:00,43.0,42.4,29.91,NW,315,0.0,2.0,98,0.00,,,0.00,meteohub,2013-05-07 06:32:00,
2013-05-07 02:37:00,43.0,42.4,29.91,West,270,0.0,2.0,98,0.00,,,0.00,meteohub,2013-05-07 06:37:00,
2013-05-07 02:42:00,43.0,42.4,29.91,NE,45,2.0,2.0,98,0.00,,,0.00,meteohub,2013-05-07 06:42:00,
2013-05-07 02:47:00,43.0,42.4,29.91,NW,315,1.0,2.0,98,0.00,,,0.00,meteohub,2013-05-07 06:47:00,
2013-05-07 02:52:00,42.8,42.3,29.91,NW,315,0.0,2.0,98,0.00,,,0.00,meteohub,2013-05-07 06:52:00,
2013-05-07 02:57:00,42.8,42.3,29.91,NW,315,2.0,2.0,98,0.00,,,0.00,meteohub,2013-05-07 06:57:00,
2013-05-07 03:02:00,43.0,42.4,29.90,North,0,0.0,2.0,98,0.00,,,0.00,meteohub,2013-05-07 07:02:00,
2013-05-07 03:07:00,42.8,42.3,29.91,North,0,0.0,2.0,98,0.00,,,0.00,meteohub,2013-05-07 07:07:00,
2013-05-07 03:12:00,42.8,42.3,29.91,NW,315,1.0,2.0,98,0.00,,,0.00,meteohub,2013-05-07 07:12:00,
2013-05-07 03:17:00,42.8,42.3,29.91,NW,315,1.0,2.0,98,0.00,,,0.00,meteohub,2013-05-07 07:17:00,
2013-05-07 03:22:00,42.8,42.3,29.90,West,270,0.0,2.0,98,0.00,,,0.00,meteohub,2013-05-07 07:22:00,
2013-05-07 03:27:00,42.8,42.3,29.90,NW,315,1.0,2.0,98,0.00,,,0.00,meteohub,2013-05-07 07:27:00,
2013-05-07 03:32:00,43.0,42.4,29.90,NW,315,0.0,2.0,98,0.00,,,0.00,meteohub,2013-05-07 07:32:00,
2013-05-07 03:37:00,43.0,42.4,29.90,NW,315,0.0,2.0,98,0.00,,,0.00,meteohub,2013-05-07 07:37:00,
2013-05-07 03:42:00,42.8,42.3,29.90,NW,315,0.0,2.0,98,0.00,,,0.00,meteohub,2013-05-07 07:42:00,
2013-05-07 03:47:00,42.8,42.3,29.89,NW,315,0.0,0.0,98,0.00,,,0.00,meteohub,2013-05-07 07:47:00,
2013-05-07 03:52:00,42.8,42.3,29.90,NW,315,0.0,1.0,98,0.00,,,0.00,meteohub,2013-05-07 07:52:00,
2013-05-07 03:57:00,42.8,42.3,29.90,East,90,0.0,1.0,98,0.00,,,0.00,meteohub,2013-05-07 07:57:00,
2013-05-07 04:02:00,43.0,42.4,29.90,East,90,1.0,2.0,98,0.00,,,0.00,meteohub,2013-05-07 08:02:00,
2013-05-07 04:07:00,42.8,42.3,29.90,North,0,1.0,2.0,98,0.00,,,0.00,meteohub,2013-05-07 08:07:00,
2013-05-07 04:12:00,42.8,42.3,29.90,NW,315,1.0,2.0,98,0.00,,,0.00,meteohub,2013-05-07 08:12:00,
2013-05-07 04:17:00,42.8,42.3,29.90,West,270,2.0,2.0,98,0.00,,,0.00,meteohub,2013-05-07 08:17:00,
2013-05-07 04:22:00,43.0,42.4,29.90,NW,315,1.0,2.0,98,0.00,,,0.00,meteohub,2013-05-07 08:22:00,
2013-05-07 04:27:00,42.8,42.3,29.90,NW,315,0.0,3.0,98,0.00,,,0.00,meteohub,2013-05-07 08:27:00,
2013-05-07 04:32:00,43.0,42.4,29.90,West,270,1.0,3.0,98,0.00,,,0.00,meteohub,2013-05-07 08:32:00,
2013-05-07 04:37:00,42.8,42.3,29.90,West,270,2.0,3.0,98,0.00,,,0.00,meteohub,2013-05-07 08:37:00,
2013-05-07 04:42:00,43.0,42.4,29.90,West,270,2.0,2.0,98,0.00,,,0.00,meteohub,2013-05-07 08:42:00,
2013-05-07 04:47:00,43.2,42.6,29.90,SW,225,2.0,2.0,98,0.00,,,0.00,meteohub,2013-05-07 08:47:00,
2013-05-07 04:52:00,43.2,42.6,29.89,West,270,1.0,2.0,98,0.00,,,0.00,meteohub,2013-05-07 08:52:00,
2013-05-07 04:57:00,43.2,42.6,29.89,NW,315,0.0,2.0,98,0.00,,,0.00,meteohub,2013-05-07 08:57:00,
2013-05-07 05:02:00,43.2,42.6,29.89,East,90,1.0,2.0,98,0.00,,,0.00,meteohub,2013-05-07 09:02:00,
2013-05-07 05:07:00,43.2,42.6,29.89,NW,315,2.0,2.0,98,0.00,,,0.00,meteohub,2013-05-07 09:07:00,
2013-05-07 05:12:00,43.3,42.8,29.89,West,270,1.0,2.0,98,0.00,,,0.00,meteohub,2013-05-07 09:12:00,
2013-05-07 05:17:00,43.5,43.0,29.89,SW,225,2.0,3.0,98,0.00,,,0.00,meteohub,2013-05-07 09:17:00,
2013-05-07 05:22:00,43.3,42.8,29.89,NW,315,1.0,3.0,98,0.00,,,0.00,meteohub,2013-05-07 09:22:00,
2013-05-07 05:28:00,43.3,42.8,29.89,NNW,338,1.0,2.0,98,0.00,,,0.00,meteohub,2013-05-07 09:28:00,
2013-05-07 05:34:00,43.3,42.8,29.90,NW,315,2.0,2.0,98,0.00,,,0.00,meteohub,2013-05-07 09:34:00,
2013-05-07 05:40:00,43.5,43.0,29.90,NW,315,2.0,2.0,98,0.00,,,0.00,meteohub,2013-05-07 09:40:00,
2013-05-07 05:46:00,43.5,43.0,29.90,West,270,2.0,2.0,98,0.00,,,0.00,meteohub,2013-05-07 09:46:00,
2013-05-07 05:52:00,43.7,43.2,29.90,West,270,1.0,2.0,98,0.00,,,0.00,meteohub,2013-05-07 09:52:00,
2013-05-07 05:57:00,43.7,43.2,29.90,West,270,3.0,3.0,98,0.00,,,0.00,meteohub,2013-05-07 09:57:00,
2013-05-07 06:02:00,43.9,43.3,29.90,NW,315,3.0,3.0,98,0.00,,,0.00,meteohub,2013-05-07 10:02:00,
2013-05-07 06:07:00,43.7,43.2,29.90,NW,315,4.0,4.0,98,0.00,,,0.00,meteohub,2013-05-07 10:07:00,
2013-05-07 06:12:00,43.9,43.3,29.90,NW,315,2.0,4.0,98,0.00,,,0.00,meteohub,2013-05-07 10:12:00,
2013-05-07 06:17:00,43.7,43.2,29.90,West,270,2.0,4.0,98,0.00,,,0.00,meteohub,2013-05-07 10:17:00,
2013-05-07 06:22:00,43.7,43.2,29.90,NW,315,2.0,4.0,98,0.00,,,0.00,meteohub,2013-05-07 10:22:00,
2013-05-07 06:27:00,43.7,43.2,29.90,West,270,2.0,3.0,98,0.00,,,0.00,meteohub,2013-05-07 10:27:00,
2013-05-07 06:32:00,43.7,43.2,29.91,NW,315,3.0,3.0,98,0.00,,,0.00,meteohub,2013-05-07 10:32:00,
2013-05-07 06:37:00,43.7,43.2,29.91,West,270,2.0,3.0,98,0.00,,,0.00,meteohub,2013-05-07 10:37:00,
2013-05-07 06:42:00,43.9,43.3,29.90,NW,315,2.0,3.0,98,0.00,,,0.00,meteohub,2013-05-07 10:42:00,
2013-05-07 06:47:00,43.9,43.3,29.90,NW,315,3.0,3.0,98,0.00,,,0.00,meteohub,2013-05-07 10:47:00,
2013-05-07 06:52:00,44.2,43.7,29.90,West,270,2.0,3.0,98,0.00,,,0.00,meteohub,2013-05-07 10:52:00,
2013-05-07 06:57:00,44.2,43.7,29.90,NW,315,3.0,3.0,98,0.00,,,0.00,meteohub,2013-05-07 10:57:00,
2013-05-07 07:02:00,44.2,43.7,29.90,NW,315,2.0,3.0,98,0.00,,,0.00,meteohub,2013-05-07 11:02:00,
2013-05-07 07:07:00,44.6,43.9,29.91,West,270,1.0,3.0,97,0.00,,,0.00,meteohub,2013-05-07 11:07:00,
2013-05-07 07:12:00,44.8,44.1,29.91,NW,315,3.0,3.0,97,0.00,,,0.00,meteohub,2013-05-07 11:12:00,
2013-05-07 07:17:00,45.0,44.2,29.91,NW,315,3.0,4.0,97,0.00,,,0.00,meteohub,2013-05-07 11:17:00,
2013-05-07 07:22:00,45.0,44.2,29.91,NW,315,2.0,4.0,97,0.00,,,0.00,meteohub,2013-05-07 11:22:00,
2013-05-07 07:27:00,45.0,44.2,29.91,West,270,2.0,4.0,97,0.00,,,0.00,meteohub,2013-05-07 11:27:00,
2013-05-07 07:32:00,45.1,44.4,29.91,NW,315,2.0,3.0,97,0.00,,,0.00,meteohub,2013-05-07 11:32:00,
2013-05-07 07:37:00,45.1,44.4,29.91,NW,315,2.0,3.0,97,0.00,,,0.00,meteohub,2013-05-07 11:37:00,
2013-05-07 07:42:00,45.3,44.6,29.91,West,270,3.0,3.0,97,0.00,,,0.00,meteohub,2013-05-07 11:42:00,
2013-05-07 07:47:00,45.5,44.8,29.91,NW,315,2.0,3.0,97,0.00,,,0.00,meteohub,2013-05-07 11:47:00,
2013-05-07 07:52:00,45.7,45.0,29.91,West,270,2.0,3.0,97,0.00,,,0.00,meteohub,2013-05-07 11:52:00,
2013-05-07 07:57:00,45.7,45.0,29.91,West,270,0.0,3.0,97,0.00,,,0.00,meteohub,2013-05-07 11:57:00,
2013-05-07 08:02:00,45.9,45.1,29.91,NW,315,1.0,3.0,97,0.00,,,0.00,meteohub,2013-05-07 12:02:00,
2013-05-07 08:07:00,46.0,45.3,29.91,West,270,2.0,3.0,97,0.00,,,0.00,meteohub,2013-05-07 12:07:00,
2013-05-07 08:12:00,46.2,45.5,29.91,NW,315,2.0,2.0,97,0.00,,,0.00,meteohub,2013-05-07 12:12:00,
2013-05-07 08:17:00,46.2,45.5,29.91,NW,315,3.0,3.0,97,0.00,,,0.00,meteohub,2013-05-07 12:17:00,
2013-05-07 08:22:00,46.2,45.5,29.91,NW,315,2.0,3.0,97,0.00,,,0.00,meteohub,2013-05-07 12:22:00,
2013-05-07 08:27:00,46.4,46.2,29.91,NW,315,0.0,3.0,99,0.00,,,0.00,meteohub,2013-05-07 12:27:00,
2013-05-07 08:32:00,46.6,46.4,29.91,NW,315,0.0,3.0,99,0.00,,,0.00,meteohub,2013-05-07 12:32:00,
2013-05-07 08:37:00,46.9,46.8,29.92,NW,315,1.0,2.0,99,0.00,,,0.00,meteohub,2013-05-07 12:37:00,
2013-05-07 08:42:00,47.3,47.1,29.91,NW,315,1.0,2.0,99,0.00,,,0.00,meteohub,2013-05-07 12:42:00,
2013-05-07 08:47:00,47.7,47.5,29.91,NW,315,2.0,2.0,99,0.00,,,0.00,meteohub,2013-05-07 12:47:00,
2013-05-07 08:52:00,47.8,47.7,29.92,NW,315,2.0,3.0,99,0.00,,,0.00,meteohub,2013-05-07 12:52:00,
2013-05-07 08:57:00,47.8,47.3,29.92,NW,315,2.0,3.0,98,0.00,,,0.00,meteohub,2013-05-07 12:57:00,
2013-05-07 09:02:00,48.2,47.3,29.92,West,270,2.0,3.0,97,0.00,,,0.00,meteohub,2013-05-07 13:02:00,
2013-05-07 09:07:00,48.6,47.7,29.92,West,270,2.0,3.0,97,0.00,,,0.00,meteohub,2013-05-07 13:07:00,
2013-05-07 09:12:00,48.7,47.7,29.92,NW,315,0.0,2.0,96,0.00,,,0.00,meteohub,2013-05-07 13:12:00,
2013-05-07 09:17:00,49.3,48.2,29.92,West,270,0.0,2.0,96,0.00,,,0.00,meteohub,2013-05-07 13:17:00,
2013-05-07 09:22:00,49.8,48.4,29.91,NW,315,2.0,3.0,95,0.00,,,0.00,meteohub,2013-05-07 13:22:00,
2013-05-07 09:27:00,50.0,48.0,29.91,NW,315,0.0,3.0,93,0.00,,,0.00,meteohub,2013-05-07 13:27:00,
2013-05-07 09:32:00,50.0,48.0,29.92,NW,315,2.0,2.0,93,0.00,,,0.00,meteohub,2013-05-07 13:32:00,
2013-05-07 09:37:00,49.8,47.7,29.91,NW,315,2.0,3.0,92,0.00,,,0.00,meteohub,2013-05-07 13:37:00,
2013-05-07 09:42:00,49.8,47.3,29.92,NW,315,0.0,3.0,91,0.00,,,0.00,meteohub,2013-05-07 13:42:00,
2013-05-07 09:47:00,50.2,47.3,29.91,NW,315,2.0,3.0,90,0.00,,,0.00,meteohub,2013-05-07 13:47:00,
2013-05-07 09:52:00,50.5,47.7,29.91,West,270,1.0,3.0,90,0.00,,,0.00,meteohub,2013-05-07 13:52:00,
2013-05-07 09:57:00,51.1,48.0,29.91,NW,315,0.0,2.0,89,0.00,,,0.00,meteohub,2013-05-07 13:57:00,
2013-05-07 10:02:00,51.6,48.2,29.91,SE,135,0.0,2.0,88,0.00,,,0.00,meteohub,2013-05-07 14:02:00,
2013-05-07 10:07:00,54.1,50.0,29.92,West,270,0.0,2.0,86,0.00,,,0.00,meteohub,2013-05-07 14:07:00,
2013-05-07 10:12:00,57.6,52.7,29.91,West,270,0.0,2.0,84,0.00,,,0.00,meteohub,2013-05-07 14:12:00,
2013-05-07 10:17:00,59.5,51.3,29.91,West,270,0.0,2.0,74,0.00,,,0.00,meteohub,2013-05-07 14:17:00,
2013-05-07 10:22:00,60.8,50.9,29.91,West,270,0.0,2.0,70,0.00,,,0.00,meteohub,2013-05-07 14:22:00,
2013-05-07 10:27:00,61.0,50.4,29.91,NW,315,2.0,2.0,68,0.00,,,0.00,meteohub,2013-05-07 14:27:00,
2013-05-07 10:32:00,60.6,50.0,29.91,NW,315,3.0,3.0,68,0.00,,,0.00,meteohub,2013-05-07 14:32:00,
2013-05-07 10:37:00,60.8,49.8,29.91,West,270,2.0,3.0,67,0.00,,,0.00,meteohub,2013-05-07 14:37:00,
2013-05-07 10:42:00,61.5,50.5,29.91,NW,315,0.0,3.0,67,0.00,,,0.00,meteohub,2013-05-07 14:42:00,
2013-05-07 10:47:00,62.6,50.7,29.91,WNW,293,2.0,3.0,65,0.00,,,0.00,meteohub,2013-05-07 14:47:00,
2013-05-07 10:52:00,62.6,49.8,29.91,West,270,3.0,3.0,63,0.00,,,0.00,meteohub,2013-05-07 14:52:00,
2013-05-07 10:57:00,62.4,49.6,29.91,NW,315,3.0,4.0,63,0.00,,,0.00,meteohub,2013-05-07 14:57:00,
2013-05-07 11:02:00,62.4,49.6,29.91,NW,315,3.0,4.0,63,0.00,,,0.00,meteohub,2013-05-07 15:02:00,
2013-05-07 11:07:00,62.6,49.8,29.90,NW,315,2.0,4.0,63,0.00,,,0.00,meteohub,2013-05-07 15:07:00,
2013-05-07 11:12:00,62.8,50.0,29.90,NW,315,3.0,4.0,63,0.00,,,0.00,meteohub,2013-05-07 15:12:00,
2013-05-07 11:17:00,63.0,50.2,29.90,NW,315,3.0,3.0,63,0.00,,,0.00,meteohub,2013-05-07 15:17:00,
2013-05-07 11:22:00,63.5,50.7,29.90,North,0,4.0,4.0,63,0.00,,,0.00,meteohub,2013-05-07 15:22:00,
2013-05-07 11:27:00,63.9,50.5,29.90,SW,225,3.0,4.0,62,0.00,,,0.00,meteohub,2013-05-07 15:27:00,
2013-05-07 11:32:00,64.2,50.5,29.90,NW,315,3.0,4.0,61,0.00,,,0.00,meteohub,2013-05-07 15:32:00,
2013-05-07 11:37:00,64.2,50.9,29.90,NW,315,3.0,4.0,62,0.00,,,0.00,meteohub,2013-05-07 15:37:00,
2013-05-07 11:42:00,64.2,50.5,29.90,West,270,4.0,4.0,61,0.00,,,0.00,meteohub,2013-05-07 15:42:00,
2013-05-07 11:47:00,64.0,50.7,29.90,NW,315,5.0,5.0,62,0.00,,,0.00,meteohub,2013-05-07 15:47:00,
2013-05-07 11:52:00,64.0,50.7,29.90,West,270,2.0,5.0,62,0.00,,,0.00,meteohub,2013-05-07 15:52:00,
2013-05-07 11:57:00,64.4,50.7,29.90,NW,315,5.0,6.0,61,0.00,,,0.00,meteohub,2013-05-07 15:57:00,
2013-05-07 12:02:00,64.8,51.4,29.90,NW,315,4.0,7.0,62,0.00,,,0.00,meteohub,2013-05-07 16:02:00,
2013-05-07 12:07:00,65.3,52.0,29.89,NW,315,3.0,7.0,62,0.00,,,0.00,meteohub,2013-05-07 16:07:00,
2013-05-07 12:12:00,66.4,52.2,29.89,NW,315,4.0,6.0,60,0.00,,,0.00,meteohub,2013-05-07 16:12:00,
2013-05-07 12:17:00,67.3,52.0,29.89,NW,315,4.0,5.0,58,0.00,,,0.00,meteohub,2013-05-07 16:17:00,
2013-05-07 12:22:00,67.8,52.0,29.89,NW,315,5.0,5.0,57,0.00,,,0.00,meteohub,2013-05-07 16:22:00,
2013-05-07 12:27:00,68.2,51.4,29.89,NW,315,4.0,5.0,55,0.00,,,0.00,meteohub,2013-05-07 16:27:00,
2013-05-07 12:32:00,68.9,51.1,29.88,NW,315,4.0,5.0,53,0.00,,,0.00,meteohub,2013-05-07 16:32:00,
2013-05-07 12:37:00,69.6,51.8,29.89,East,90,4.0,5.0,53,0.00,,,0.00,meteohub,2013-05-07 16:37:00,
2013-05-07 12:42:00,70.0,50.5,29.88,North,0,8.0,8.0,50,0.00,,,0.00,meteohub,2013-05-07 16:42:00,
2013-05-07 12:47:00,70.2,50.7,29.89,NW,315,3.0,8.0,50,0.00,,,0.00,meteohub,2013-05-07 16:47:00,
2013-05-07 12:52:00,70.7,50.5,29.89,NW,315,4.0,8.0,49,0.00,,,0.00,meteohub,2013-05-07 16:52:00,
2013-05-07 12:57:00,70.7,51.1,29.89,NW,315,4.0,8.0,50,0.00,,,0.00,meteohub,2013-05-07 16:57:00,
2013-05-07 13:02:00,70.5,50.9,29.88,NW,315,4.0,5.0,50,0.00,,,0.00,meteohub,2013-05-07 17:02:00,
2013-05-07 13:07:00,70.7,48.9,29.88,NW,315,5.0,7.0,46,0.00,,,0.00,meteohub,2013-05-07 17:07:00,
2013-05-07 13:12:00,70.7,50.0,29.88,SW,225,3.0,7.0,48,0.00,,,0.00,meteohub,2013-05-07 17:12:00,
2013-05-07 13:17:00,71.2,51.1,29.88,West,270,5.0,7.0,49,0.00,,,0.00,meteohub,2013-05-07 17:17:00,
2013-05-07 13:22:00,71.8,49.8,29.88,West,270,4.0,7.0,46,0.00,,,0.00,meteohub,2013-05-07 17:22:00,
2013-05-07 13:27:00,71.4,51.3,29.88,NW,315,2.0,7.0,49,0.00,,,0.00,meteohub,2013-05-07 17:27:00,
2013-05-07 13:32:00,308.5,99.9,29.88,SW,225,2.0,6.0,46,0.00,,,0.00,meteohub,2013-05-07 17:32:00,
2013-05-07 13:38:00,75.2,52.3,29.88,West,270,2.0,6.0,45,0.00,,,0.00,meteohub,2013-05-07 17:38:00,
2013-05-07 13:44:00,75.7,52.3,29.88,West,270,2.0,4.0,44,0.00,,,0.00,meteohub,2013-05-07 17:44:00,
2013-05-07 13:50:00,75.4,52.0,29.88,South,180,3.0,3.0,44,0.00,,,0.00,meteohub,2013-05-07 17:50:00,
2013-05-07 13:56:00,74.8,52.2,29.88,North,0,4.0,5.0,45,0.00,,,0.00,meteohub,2013-05-07 17:56:00,
2013-05-07 14:02:00,74.1,51.4,29.88,NW,315,4.0,5.0,45,0.00,,,0.00,meteohub,2013-05-07 18:02:00,
2013-05-07 14:07:00,73.9,51.8,29.88,West,270,2.0,5.0,46,0.00,,,0.00,meteohub,2013-05-07 18:07:00,
2013-05-07 14:12:00,74.7,52.0,29.88,NW,315,4.0,5.0,45,0.00,,,0.00,meteohub,2013-05-07 18:12:00,
2013-05-07 14:17:00,74.7,52.0,29.88,NW,315,2.0,6.0,45,0.00,,,0.00,meteohub,2013-05-07 18:17:00,
2013-05-07 14:22:00,74.1,51.4,29.88,North,0,4.0,6.0,45,0.00,,,0.00,meteohub,2013-05-07 18:22:00,
2013-05-07 14:27:00,73.8,52.3,29.87,SW,225,3.0,8.0,47,0.00,,,0.00,meteohub,2013-05-07 18:27:00,
2013-05-07 14:32:00,74.5,52.3,29.87,South,180,3.0,8.0,46,0.00,,,0.00,meteohub,2013-05-07 18:32:00,
2013-05-07 14:37:00,73.4,51.4,29.87,West,270,2.0,8.0,46,0.00,,,0.00,meteohub,2013-05-07 18:37:00,
2013-05-07 14:42:00,73.4,51.4,29.87,West,270,2.0,5.0,46,0.00,,,0.00,meteohub,2013-05-07 18:42:00,
2013-05-07 14:47:00,73.6,51.4,29.87,NW,315,4.0,5.0,46,0.00,,,0.00,meteohub,2013-05-07 18:47:00,
2013-05-07 14:52:00,73.8,51.1,29.87,NW,315,3.0,4.0,45,0.00,,,0.00,meteohub,2013-05-07 18:52:00,
2013-05-07 14:57:00,73.9,51.3,29.87,NW,315,3.0,4.0,45,0.00,,,0.00,meteohub,2013-05-07 18:57:00,
2013-05-07 15:02:00,73.6,50.9,29.87,NW,315,2.0,4.0,45,0.00,,,0.00,meteohub,2013-05-07 19:02:00,
2013-05-07 15:08:00,73.6,49.6,29.87,South,180,4.0,5.0,43,0.00,,,0.00,meteohub,2013-05-07 19:08:00,
2013-05-07 15:14:00,73.6,49.6,29.87,NE,45,4.0,5.0,43,0.00,,,0.00,meteohub,2013-05-07 19:14:00,
2013-05-07 15:20:00,72.9,48.4,29.87,NW,315,4.0,5.0,42,0.00,,,0.00,meteohub,2013-05-07 19:20:00,
2013-05-07 15:27:00,72.3,49.8,29.87,SW,225,4.0,6.0,45,0.00,,,0.00,meteohub,2013-05-07 19:27:00,
2013-05-07 15:32:00,71.6,48.6,29.87,West,270,4.0,6.0,44,0.00,,,0.00,meteohub,2013-05-07 19:32:00,
2013-05-07 15:37:00,70.9,49.1,29.87,SW,225,3.0,7.0,46,0.00,,,0.00,meteohub,2013-05-07 19:37:00,
2013-05-07 15:42:00,71.6,50.4,29.86,NW,315,4.0,7.0,47,0.00,,,0.00,meteohub,2013-05-07 19:42:00,
2013-05-07 15:47:00,72.7,50.7,29.86,SW,225,4.0,7.0,46,0.00,,,0.00,meteohub,2013-05-07 19:47:00,
2013-05-07 15:52:00,73.0,49.3,29.87,NW,315,4.0,4.0,43,0.00,,,0.00,meteohub,2013-05-07 19:52:00,
2013-05-07 15:57:00,72.3,49.1,29.87,West,270,2.0,4.0,44,0.00,,,0.00,meteohub,2013-05-07 19:57:00,
2013-05-07 16:02:00,71.6,49.6,29.87,NW,315,4.0,6.0,46,0.00,,,0.00,meteohub,2013-05-07 20:02:00,
2013-05-07 16:07:00,71.6,50.4,29.87,NW,315,4.0,6.0,47,0.00,,,0.00,meteohub,2013-05-07 20:07:00,
2013-05-07 16:13:00,71.6,49.6,29.88,NW,315,4.0,6.0,46,0.00,,,0.00,meteohub,2013-05-07 20:13:00,
2013-05-07 16:19:00,71.1,51.4,29.88,West,270,2.0,6.0,50,0.00,,,0.00,meteohub,2013-05-07 20:19:00,
2013-05-07 16:25:00,71.6,50.9,29.87,North,0,2.0,5.0,48,0.00,,,0.00,meteohub,2013-05-07 20:25:00,
2013-05-07 16:31:00,72.0,51.3,29.87,West,270,4.0,5.0,48,0.00,,,0.00,meteohub,2013-05-07 20:31:00,
2013-05-07 16:37:00,71.6,50.4,29.87,West,270,2.0,4.0,47,0.00,,,0.00,meteohub,2013-05-07 20:37:00,
2013-05-07 16:42:00,72.1,51.4,29.87,North,0,5.0,5.0,48,0.00,,,0.00,meteohub,2013-05-07 20:42:00,
2013-05-07 16:47:00,71.6,50.4,29.87,SW,225,4.0,5.0,47,0.00,,,0.00,meteohub,2013-05-07 20:47:00,
2013-05-07 16:52:00,70.2,51.3,29.87,West,270,2.0,5.0,51,0.00,,,0.00,meteohub,2013-05-07 20:52:00,
2013-05-07 16:57:00,69.4,51.6,29.86,NW,315,4.0,5.0,53,0.00,,,0.00,meteohub,2013-05-07 20:57:00,
2013-05-07 17:02:00,68.9,51.1,29.86,SW,225,2.0,5.0,53,0.00,,,0.00,meteohub,2013-05-07 21:02:00,
2013-05-07 17:07:00,68.7,51.4,29.86,NW,315,2.0,4.0,54,0.00,,,0.00,meteohub,2013-05-07 21:07:00,
2013-05-07 17:12:00,68.5,50.7,29.86,WNW,293,2.0,4.0,53,0.00,,,0.00,meteohub,2013-05-07 21:12:00,
2013-05-07 17:17:00,68.2,50.9,29.86,NE,45,5.0,5.0,54,0.00,,,0.00,meteohub,2013-05-07 21:17:00,
2013-05-07 17:22:00,67.8,51.1,29.86,NW,315,6.0,6.0,55,0.00,,,0.00,meteohub,2013-05-07 21:22:00,
2013-05-07 17:27:00,67.3,51.1,29.86,NW,315,6.0,6.0,56,0.00,,,0.00,meteohub,2013-05-07 21:27:00,
2013-05-07 17:32:00,66.9,50.7,29.86,NW,315,2.0,6.0,56,0.00,,,0.00,meteohub,2013-05-07 21:32:00,
2013-05-07 17:37:00,66.7,50.5,29.87,NW,315,5.0,6.0,56,0.00,,,0.00,meteohub,2013-05-07 21:37:00,
2013-05-07 17:42:00,66.2,50.5,29.87,NW,315,5.0,7.0,57,0.00,,,0.00,meteohub,2013-05-07 21:42:00,
2013-05-07 17:47:00,66.0,50.9,29.87,NW,315,2.0,7.0,58,0.00,,,0.00,meteohub,2013-05-07 21:47:00,
2013-05-07 17:52:00,66.2,50.5,29.87,West,270,4.0,7.0,57,0.00,,,0.00,meteohub,2013-05-07 21:52:00,
2013-05-07 17:57:00,66.2,50.9,29.87,West,270,4.0,7.0,58,0.00,,,0.00,meteohub,2013-05-07 21:57:00,
2013-05-07 18:02:00,66.4,51.1,29.87,NW,315,2.0,6.0,58,0.00,,,0.00,meteohub,2013-05-07 22:02:00,
2013-05-07 18:07:00,66.6,51.8,29.87,West,270,3.0,6.0,59,0.00,,,0.00,meteohub,2013-05-07 22:07:00,
2013-05-07 18:12:00,66.6,51.3,29.87,NW,315,2.0,5.0,58,0.00,,,0.00,meteohub,2013-05-07 22:12:00,